Dirección General De Aeronáutica Civil

Dirección Meteorológica de Chile - Servicios Climáticos

Informe General de Control de Calidad de la Estación

Listado de niveles de control de calidad para algunos parámetros
Estación Río Negro (400055)
Fecha de Revisión de los datos :

Elementos

Registros Niveles de Control Total
Nivel 0 Nivel 1 Nivel 2 Nivel 3 Errores Porcentaje
01 Temperatura del Aire Seco 126.849 0 . 445 0.35 % 0 . 0 . 445 0.35 %
02 Temperatura de Rocío 120.179 0 . 0 . 0 . 0 . 0 0.00 %
03 Humedad Relativa del Aire 126.877 0 . 0 . 0 . 0 . 0 0.00 %
04 Temperatura Máxima PM 1.466 0 . 0 . 1 0.07 % 0 . 1 0.07 %
05 Temperatura Mínima AM 1.449 0 . 0 . 1 0.07 % 0 . 1 0.07 %
06 Agua Caida, Acumulada 6 Horas 21.988 0 . 0 . 0 . 0 . 0 0.00 %
07 Presión Atm. a Nivel de Estación (QFE) 119.780 0 . 0 . 0 . 0 . 0 0.00 %
08 Presión Atm. a Nivel Medio del Mar (QFF) 34.176 0 . 0 . 0 . 0 . 0 0.00 %
09 Presión Atm. Estándar OACI (QNH) 34.176 0 . 0 . 0 . 0 . 0 0.00 %

Totales

586.940 . 0.0000 % . 0.0758 % . 0.0003 % . 0.0000 % 447 0.0762 %

Detalle de Errores Recientes

Fecha del Dato Descripción Información Error Fecha Ingreso
2024-05-23 00:00:00 Temperatura 12.3 del 22-05-2024 18:00, Mayor que la Máxima 11.7 23-05-2024 00:00 12.3 -- 11.7 2024-05-23 01:01:00
Total de Errores Recientes 1

Detalle de Errores Encontrados

Nivel Fecha del Dato Descripción Información Error Fecha Ingreso
1 2013-07-10 06:00:00 Ts debe ser mayor o igual a Td Ts=8.2 - Td=8.3 2023-11-20 23:26:00
1 2013-07-10 11:00:00 Ts debe ser mayor o igual a Td Ts=6.8 - Td=6.9 2023-11-20 23:26:00
1 2013-07-10 14:00:00 Ts debe ser mayor o igual a Td Ts=8.6 - Td=8.7 2023-11-20 23:26:00
1 2013-07-16 09:00:00 Ts debe ser mayor o igual a Td Ts=9.2 - Td=9.3 2023-11-20 23:26:00
1 2013-08-01 15:00:00 Ts debe ser mayor o igual a Td Ts=7.5 - Td=7.6 2023-11-20 23:26:00
1 2013-08-01 23:00:00 Ts debe ser mayor o igual a Td Ts=7.3 - Td=7.4 2023-11-20 23:26:00
1 2013-08-02 05:00:00 Ts debe ser mayor o igual a Td Ts=6.6 - Td=6.7 2023-11-20 23:26:00
1 2013-08-15 07:00:00 Ts debe ser mayor o igual a Td Ts=8.3 - Td=8.4 2023-11-20 23:27:00
1 2013-08-15 08:00:00 Ts debe ser mayor o igual a Td Ts=8.3 - Td=8.4 2023-11-20 23:27:00
1 2013-08-27 10:00:00 Ts debe ser mayor o igual a Td Ts=10.5 - Td=10.6 2023-11-20 23:27:00
1 2013-09-04 01:00:00 Ts debe ser mayor o igual a Td Ts=7.8 - Td=7.9 2023-11-20 23:27:00
1 2013-09-07 09:00:00 Ts debe ser mayor o igual a Td Ts=8.4 - Td=8.5 2023-11-20 23:27:00
1 2013-10-20 05:00:00 Ts debe ser mayor o igual a Td Ts=9.3 - Td=9.4 2023-11-20 23:27:00
1 2013-11-05 12:00:00 Ts debe ser mayor o igual a Td Ts=9.4 - Td=9.5 2023-11-20 23:28:00
1 2014-02-05 06:00:00 Ts debe ser mayor o igual a Td Ts=7.1 - Td=7.2 2023-11-20 23:29:00
1 2014-02-07 10:00:00 Ts debe ser mayor o igual a Td Ts=12.4 - Td=12.5 2023-11-20 23:29:00
1 2014-04-03 11:00:00 Ts debe ser mayor o igual a Td Ts=7.8 - Td=7.9 2023-11-20 23:30:00
1 2014-04-05 12:00:00 Ts debe ser mayor o igual a Td Ts=8.2 - Td=8.3 2023-11-20 23:30:00
1 2014-04-22 08:00:00 Ts debe ser mayor o igual a Td Ts=8.2 - Td=8.3 2023-11-20 23:30:00
1 2014-04-22 13:00:00 Ts debe ser mayor o igual a Td Ts=11.4 - Td=11.5 2023-11-20 23:30:00
1 2014-04-25 09:00:00 Ts debe ser mayor o igual a Td Ts=8.9 - Td=9.0 2023-11-20 23:30:00
1 2014-04-25 10:00:00 Ts debe ser mayor o igual a Td Ts=8.8 - Td=8.9 2023-11-20 23:30:00
1 2014-04-25 13:00:00 Ts debe ser mayor o igual a Td Ts=9.1 - Td=9.2 2023-11-20 23:30:00
1 2014-04-25 14:00:00 Ts debe ser mayor o igual a Td Ts=9.4 - Td=9.5 2023-11-20 23:30:00
1 2014-04-26 03:00:00 Ts debe ser mayor o igual a Td Ts=7.8 - Td=7.9 2023-11-20 23:30:00
1 2014-04-26 07:00:00 Ts debe ser mayor o igual a Td Ts=9.1 - Td=9.2 2023-11-20 23:30:00
1 2014-04-26 18:00:00 Ts debe ser mayor o igual a Td Ts=10.4 - Td=10.5 2023-11-20 23:30:00
1 2014-04-30 22:00:00 Ts debe ser mayor o igual a Td Ts=8.9 - Td=9.0 2023-11-20 23:30:00
1 2014-04-30 23:00:00 Ts debe ser mayor o igual a Td Ts=8.3 - Td=8.4 2023-11-20 23:30:00
1 2014-05-02 10:00:00 Ts debe ser mayor o igual a Td Ts=6.9 - Td=7.0 2023-11-20 23:30:00
1 2014-05-05 07:00:00 Ts debe ser mayor o igual a Td Ts=8.8 - Td=8.9 2023-11-20 23:30:00
1 2014-05-07 03:00:00 Ts debe ser mayor o igual a Td Ts=14.0 - Td=14.1 2023-11-20 23:30:00
1 2014-05-07 06:00:00 Ts debe ser mayor o igual a Td Ts=13.7 - Td=13.8 2023-11-20 23:30:00
1 2014-05-08 13:00:00 Ts debe ser mayor o igual a Td Ts=12.4 - Td=12.5 2023-11-20 23:30:00
1 2014-05-09 13:00:00 Ts debe ser mayor o igual a Td Ts=12.9 - Td=13.0 2023-11-20 23:30:00
1 2014-05-12 20:00:00 Ts debe ser mayor o igual a Td Ts=10.3 - Td=10.4 2023-11-20 23:30:00
1 2014-05-13 07:00:00 Ts debe ser mayor o igual a Td Ts=7.5 - Td=7.6 2023-11-20 23:30:00
1 2014-05-13 12:00:00 Ts debe ser mayor o igual a Td Ts=7.4 - Td=7.5 2023-11-20 23:30:00
1 2014-05-14 04:00:00 Ts debe ser mayor o igual a Td Ts=8.3 - Td=8.4 2023-11-20 23:30:00
1 2014-05-14 05:00:00 Ts debe ser mayor o igual a Td Ts=8.4 - Td=8.5 2023-11-20 23:30:00
1 2014-05-14 09:00:00 Ts debe ser mayor o igual a Td Ts=8.5 - Td=8.6 2023-11-20 23:30:00
1 2014-05-14 16:00:00 Ts debe ser mayor o igual a Td Ts=12.2 - Td=12.3 2023-11-20 23:30:00
1 2014-05-15 00:00:00 Ts debe ser mayor o igual a Td Ts=10.5 - Td=10.6 2023-11-20 23:30:00
1 2014-05-15 13:00:00 Ts debe ser mayor o igual a Td Ts=12.3 - Td=12.4 2023-11-20 23:30:00
1 2014-05-17 14:00:00 Ts debe ser mayor o igual a Td Ts=7.1 - Td=7.2 2023-11-20 23:31:00
1 2014-05-17 17:00:00 Ts debe ser mayor o igual a Td Ts=9.3 - Td=9.4 2023-11-20 23:31:00
1 2014-05-18 08:00:00 Ts debe ser mayor o igual a Td Ts=7.6 - Td=7.7 2023-11-20 23:31:00
1 2014-05-25 12:00:00 Ts debe ser mayor o igual a Td Ts=8.1 - Td=8.2 2023-11-20 23:31:00
1 2014-05-26 08:00:00 Ts debe ser mayor o igual a Td Ts=8.8 - Td=8.9 2023-11-20 23:31:00
1 2014-05-26 10:00:00 Ts debe ser mayor o igual a Td Ts=9.1 - Td=9.2 2023-11-20 23:31:00
1 2014-05-27 06:00:00 Ts debe ser mayor o igual a Td Ts=8.1 - Td=8.2 2023-11-20 23:31:00
1 2014-05-29 12:00:00 Ts debe ser mayor o igual a Td Ts=8.1 - Td=8.2 2023-11-20 23:31:00
1 2014-06-02 15:00:00 Ts debe ser mayor o igual a Td Ts=11.5 - Td=11.6 2023-11-20 23:31:00
1 2014-06-03 18:00:00 Ts debe ser mayor o igual a Td Ts=7.0 - Td=7.1 2023-11-20 23:31:00
1 2014-06-09 15:00:00 Ts debe ser mayor o igual a Td Ts=10.6 - Td=10.7 2023-11-20 23:31:00
1 2014-06-10 18:00:00 Ts debe ser mayor o igual a Td Ts=8.8 - Td=8.9 2023-11-20 23:31:00
1 2014-06-10 20:00:00 Ts debe ser mayor o igual a Td Ts=9.4 - Td=9.5 2023-11-20 23:31:00
1 2014-06-15 00:00:00 Ts debe ser mayor o igual a Td Ts=8.6 - Td=8.7 2023-11-20 23:31:00
1 2014-06-15 02:00:00 Ts debe ser mayor o igual a Td Ts=8.9 - Td=9.0 2023-11-20 23:31:00
1 2014-06-15 12:00:00 Ts debe ser mayor o igual a Td Ts=8.2 - Td=8.3 2023-11-20 23:31:00
1 2014-06-16 18:00:00 Ts debe ser mayor o igual a Td Ts=7.2 - Td=7.3 2023-11-20 23:31:00
1 2014-06-22 10:00:00 Ts debe ser mayor o igual a Td Ts=10.3 - Td=10.4 2023-11-20 23:31:00
1 2014-06-27 17:00:00 Ts debe ser mayor o igual a Td Ts=8.4 - Td=8.5 2023-11-20 23:31:00
1 2014-06-27 18:00:00 Ts debe ser mayor o igual a Td Ts=8.6 - Td=8.7 2023-11-20 23:31:00
1 2014-07-01 20:00:00 Ts debe ser mayor o igual a Td Ts=6.6 - Td=6.7 2023-11-20 23:31:00
1 2014-07-06 19:00:00 Ts debe ser mayor o igual a Td Ts=8.9 - Td=9.0 2023-11-20 23:31:00
1 2014-07-15 03:00:00 Ts debe ser mayor o igual a Td Ts=8.3 - Td=8.4 2023-11-20 23:31:00
1 2014-07-15 22:00:00 Ts debe ser mayor o igual a Td Ts=7.6 - Td=7.7 2023-11-20 23:31:00
1 2014-07-16 11:00:00 Ts debe ser mayor o igual a Td Ts=8.7 - Td=8.8 2023-11-20 23:31:00
1 2014-07-16 12:00:00 Ts debe ser mayor o igual a Td Ts=8.9 - Td=9.0 2023-11-20 23:31:00
1 2014-07-19 02:00:00 Ts debe ser mayor o igual a Td Ts=7.0 - Td=7.1 2023-11-20 23:31:00
1 2014-07-19 15:00:00 Ts debe ser mayor o igual a Td Ts=7.1 - Td=7.2 2023-11-20 23:31:00
1 2014-07-20 05:00:00 Ts debe ser mayor o igual a Td Ts=7.6 - Td=7.7 2023-11-20 23:31:00
1 2014-07-20 07:00:00 Ts debe ser mayor o igual a Td Ts=7.2 - Td=7.3 2023-11-20 23:31:00
1 2014-07-20 10:00:00 Ts debe ser mayor o igual a Td Ts=7.3 - Td=7.4 2023-11-20 23:31:00
1 2014-07-21 00:00:00 Ts debe ser mayor o igual a Td Ts=8.4 - Td=8.5 2023-11-20 23:31:00
1 2014-07-21 01:00:00 Ts debe ser mayor o igual a Td Ts=8.1 - Td=8.2 2023-11-20 23:31:00
1 2014-07-25 07:00:00 Ts debe ser mayor o igual a Td Ts=6.7 - Td=6.8 2023-11-20 23:32:00
1 2014-07-28 09:00:00 Ts debe ser mayor o igual a Td Ts=8.8 - Td=8.9 2023-11-20 23:32:00
1 2014-07-28 13:00:00 Ts debe ser mayor o igual a Td Ts=9.4 - Td=9.5 2023-11-20 23:32:00
1 2014-07-29 07:00:00 Ts debe ser mayor o igual a Td Ts=9.0 - Td=9.1 2023-11-20 23:32:00
1 2014-07-31 09:00:00 Ts debe ser mayor o igual a Td Ts=10.3 - Td=10.4 2023-11-20 23:32:00
1 2014-07-31 10:00:00 Ts debe ser mayor o igual a Td Ts=10.4 - Td=10.5 2023-11-20 23:32:00
1 2014-08-01 20:00:00 Ts debe ser mayor o igual a Td Ts=12.7 - Td=12.8 2023-11-20 23:32:00
1 2014-08-09 12:00:00 Ts debe ser mayor o igual a Td Ts=8.3 - Td=8.4 2023-11-20 23:32:00
1 2014-08-19 07:00:00 Ts debe ser mayor o igual a Td Ts=7.2 - Td=7.3 2023-11-20 23:32:00
1 2014-08-19 08:00:00 Ts debe ser mayor o igual a Td Ts=7.4 - Td=7.5 2023-11-20 23:32:00
1 2014-08-19 09:00:00 Ts debe ser mayor o igual a Td Ts=7.3 - Td=7.4 2023-11-20 23:32:00
1 2014-08-19 11:00:00 Ts debe ser mayor o igual a Td Ts=7.2 - Td=7.3 2023-11-20 23:32:00
1 2014-08-19 13:00:00 Ts debe ser mayor o igual a Td Ts=7.4 - Td=7.5 2023-11-20 23:32:00
1 2014-08-21 11:00:00 Ts debe ser mayor o igual a Td Ts=8.9 - Td=9.0 2023-11-20 23:32:00
1 2014-08-22 02:00:00 Ts debe ser mayor o igual a Td Ts=7.4 - Td=7.5 2023-11-20 23:32:00
1 2014-08-22 11:00:00 Ts debe ser mayor o igual a Td Ts=7.6 - Td=7.7 2023-11-20 23:32:00
1 2014-08-25 08:00:00 Ts debe ser mayor o igual a Td Ts=7.2 - Td=7.3 2023-11-20 23:32:00
1 2014-08-25 09:00:00 Ts debe ser mayor o igual a Td Ts=7.4 - Td=7.5 2023-11-20 23:32:00
1 2014-09-05 10:00:00 Ts debe ser mayor o igual a Td Ts=7.0 - Td=7.1 2023-11-20 23:32:00
1 2014-09-05 12:00:00 Ts debe ser mayor o igual a Td Ts=8.1 - Td=8.2 2023-11-20 23:32:00
1 2014-09-07 07:00:00 Ts debe ser mayor o igual a Td Ts=7.7 - Td=7.8 2023-11-20 23:32:00
1 2014-09-07 13:00:00 Ts debe ser mayor o igual a Td Ts=7.8 - Td=7.9 2023-11-20 23:32:00
1 2014-09-11 13:00:00 Ts debe ser mayor o igual a Td Ts=6.6 - Td=6.7 2023-11-20 23:32:00
1 2014-09-17 13:00:00 Ts debe ser mayor o igual a Td Ts=7.1 - Td=7.2 2023-11-20 23:32:00
1 2014-09-27 08:00:00 Ts debe ser mayor o igual a Td Ts=7.0 - Td=7.1 2023-11-20 23:32:00
1 2014-09-27 09:00:00 Ts debe ser mayor o igual a Td Ts=7.2 - Td=7.3 2023-11-20 23:32:00
1 2014-09-27 10:00:00 Ts debe ser mayor o igual a Td Ts=7.4 - Td=7.5 2023-11-20 23:32:00
1 2014-09-28 11:00:00 Ts debe ser mayor o igual a Td Ts=9.2 - Td=9.3 2023-11-20 23:32:00
1 2015-03-08 13:00:00 Ts debe ser mayor o igual a Td Ts=11.6 - Td=11.7 2023-11-20 23:35:00
1 2015-04-05 08:00:00 Ts debe ser mayor o igual a Td Ts=10.6 - Td=10.7 2023-11-20 23:35:00
1 2015-04-09 09:00:00 Ts debe ser mayor o igual a Td Ts=8.5 - Td=8.6 2023-11-20 23:35:00
1 2015-04-11 12:00:00 Ts debe ser mayor o igual a Td Ts=7.8 - Td=7.9 2023-11-20 23:35:00
1 2015-04-16 07:00:00 Ts debe ser mayor o igual a Td Ts=7.8 - Td=7.9 2023-11-20 23:35:00
1 2015-04-16 14:00:00 Ts debe ser mayor o igual a Td Ts=7.8 - Td=7.9 2023-11-20 23:35:00
1 2015-04-16 15:00:00 Ts debe ser mayor o igual a Td Ts=9.2 - Td=9.3 2023-11-20 23:35:00
1 2015-04-19 10:00:00 Ts debe ser mayor o igual a Td Ts=8.1 - Td=8.2 2023-11-20 23:35:00
1 2015-04-20 05:00:00 Ts debe ser mayor o igual a Td Ts=8.4 - Td=8.5 2023-11-20 23:35:00
1 2015-04-20 07:00:00 Ts debe ser mayor o igual a Td Ts=8.7 - Td=8.8 2023-11-20 23:35:00
1 2015-04-20 12:00:00 Ts debe ser mayor o igual a Td Ts=7.5 - Td=7.6 2023-11-20 23:35:00
1 2015-04-24 15:00:00 Ts debe ser mayor o igual a Td Ts=7.8 - Td=7.9 2023-11-20 23:35:00
1 2015-04-27 07:00:00 Ts debe ser mayor o igual a Td Ts=8.6 - Td=8.7 2023-11-20 23:35:00
1 2015-04-30 06:00:00 Ts debe ser mayor o igual a Td Ts=5.6 - Td=5.7 2023-11-20 23:35:00
1 2015-05-04 08:00:00 Ts debe ser mayor o igual a Td Ts=8.7 - Td=8.8 2023-11-20 23:36:00
1 2015-05-04 10:00:00 Ts debe ser mayor o igual a Td Ts=9.0 - Td=9.1 2023-11-20 23:36:00
1 2015-05-05 01:00:00 Ts debe ser mayor o igual a Td Ts=8.9 - Td=9.0 2023-11-20 23:36:00
1 2015-05-05 17:00:00 Ts debe ser mayor o igual a Td Ts=10.3 - Td=10.4 2023-11-20 23:36:00
1 2015-05-06 14:00:00 Ts debe ser mayor o igual a Td Ts=7.0 - Td=7.1 2023-11-20 23:36:00
1 2015-05-06 15:00:00 Ts debe ser mayor o igual a Td Ts=8.2 - Td=8.3 2023-11-20 23:36:00
1 2015-05-10 07:00:00 Ts debe ser mayor o igual a Td Ts=9.4 - Td=9.5 2023-11-20 23:36:00
1 2015-05-10 09:00:00 Ts debe ser mayor o igual a Td Ts=9.4 - Td=9.5 2023-11-20 23:36:00
1 2015-05-15 05:00:00 Ts debe ser mayor o igual a Td Ts=12.6 - Td=12.7 2023-11-20 23:36:00
1 2015-05-15 08:00:00 Ts debe ser mayor o igual a Td Ts=12.5 - Td=12.6 2023-11-20 23:36:00
1 2015-05-17 11:00:00 Ts debe ser mayor o igual a Td Ts=10.3 - Td=10.4 2023-11-20 23:36:00
1 2015-05-18 12:00:00 Ts debe ser mayor o igual a Td Ts=10.4 - Td=10.5 2023-11-20 23:36:00
1 2015-05-29 03:00:00 Ts debe ser mayor o igual a Td Ts=8.4 - Td=8.5 2023-11-20 23:36:00
1 2015-05-31 09:00:00 Ts debe ser mayor o igual a Td Ts=9.3 - Td=9.4 2023-11-20 23:36:00
1 2015-05-31 12:00:00 Ts debe ser mayor o igual a Td Ts=9.0 - Td=9.1 2023-11-20 23:36:00
1 2015-06-02 11:00:00 Ts debe ser mayor o igual a Td Ts=14.5 - Td=14.6 2023-11-20 23:36:00
1 2015-06-02 12:00:00 Ts debe ser mayor o igual a Td Ts=14.7 - Td=14.8 2023-11-20 23:36:00
1 2015-06-07 14:00:00 Ts debe ser mayor o igual a Td Ts=7.8 - Td=7.9 2023-11-20 23:36:00
1 2015-06-11 10:00:00 Ts debe ser mayor o igual a Td Ts=5.6 - Td=5.7 2023-11-20 23:36:00
1 2015-06-20 00:00:00 Ts debe ser mayor o igual a Td Ts=5.7 - Td=5.8 2023-11-20 23:36:00
1 2015-06-26 10:00:00 Ts debe ser mayor o igual a Td Ts=10.6 - Td=10.7 2023-11-20 23:36:00
1 2015-06-30 11:00:00 Ts debe ser mayor o igual a Td Ts=7.2 - Td=7.3 2023-11-20 23:36:00
1 2015-06-30 13:00:00 Ts debe ser mayor o igual a Td Ts=7.3 - Td=7.4 2023-11-20 23:36:00
1 2015-07-17 09:00:00 Ts debe ser mayor o igual a Td Ts=9.2 - Td=9.3 2023-11-20 23:37:00
1 2015-07-17 10:00:00 Ts debe ser mayor o igual a Td Ts=8.3 - Td=8.4 2023-11-20 23:37:00
1 2015-07-17 15:00:00 Ts debe ser mayor o igual a Td Ts=7.2 - Td=7.3 2023-11-20 23:37:00
1 2015-07-17 18:00:00 Ts debe ser mayor o igual a Td Ts=6.9 - Td=7.0 2023-11-20 23:37:00
1 2015-07-24 08:00:00 Ts debe ser mayor o igual a Td Ts=7.8 - Td=7.9 2023-11-20 23:37:00
1 2015-07-25 11:00:00 Ts debe ser mayor o igual a Td Ts=10.7 - Td=10.8 2023-11-20 23:37:00
1 2015-07-28 12:00:00 Ts debe ser mayor o igual a Td Ts=8.6 - Td=8.7 2023-11-20 23:37:00
1 2015-08-06 00:00:00 Ts debe ser mayor o igual a Td Ts=8.6 - Td=8.7 2023-11-20 23:37:00
1 2015-08-06 01:00:00 Ts debe ser mayor o igual a Td Ts=8.4 - Td=8.5 2023-11-20 23:37:00
1 2015-08-06 04:00:00 Ts debe ser mayor o igual a Td Ts=7.6 - Td=7.7 2023-11-20 23:37:00
1 2015-08-06 08:00:00 Ts debe ser mayor o igual a Td Ts=7.4 - Td=7.5 2023-11-20 23:37:00
1 2015-08-25 02:00:00 Ts debe ser mayor o igual a Td Ts=10.3 - Td=10.4 2023-11-20 23:37:00
1 2015-08-25 04:00:00 Ts debe ser mayor o igual a Td Ts=10.5 - Td=10.6 2023-11-20 23:37:00
1 2015-08-25 09:00:00 Ts debe ser mayor o igual a Td Ts=10.7 - Td=10.8 2023-11-20 23:37:00
1 2015-08-28 02:00:00 Ts debe ser mayor o igual a Td Ts=10.5 - Td=10.6 2023-11-20 23:37:00
1 2015-08-28 04:00:00 Ts debe ser mayor o igual a Td Ts=10.3 - Td=10.4 2023-11-20 23:37:00
1 2015-08-28 06:00:00 Ts debe ser mayor o igual a Td Ts=10.5 - Td=10.6 2023-11-20 23:37:00
1 2016-03-31 11:00:00 Ts debe ser mayor o igual a Td Ts=7.1 - Td=7.2 2023-11-20 23:40:00
1 2016-04-23 08:00:00 Ts debe ser mayor o igual a Td Ts=7.2 - Td=7.3 2023-11-20 23:40:00
1 2016-04-23 10:00:00 Ts debe ser mayor o igual a Td Ts=7.2 - Td=7.3 2023-11-20 23:40:00
1 2016-04-23 14:00:00 Ts debe ser mayor o igual a Td Ts=8.1 - Td=8.2 2023-11-20 23:40:00
1 2016-04-24 02:00:00 Ts debe ser mayor o igual a Td Ts=7.4 - Td=7.5 2023-11-20 23:40:00
1 2016-04-24 08:00:00 Ts debe ser mayor o igual a Td Ts=7.0 - Td=7.1 2023-11-20 23:40:00
1 2016-04-24 09:00:00 Ts debe ser mayor o igual a Td Ts=7.0 - Td=7.1 2023-11-20 23:40:00
1 2016-04-24 13:00:00 Ts debe ser mayor o igual a Td Ts=9.3 - Td=9.4 2023-11-20 23:40:00
1 2016-05-03 11:00:00 Ts debe ser mayor o igual a Td Ts=7.4 - Td=7.5 2023-11-20 23:40:00
1 2016-05-03 13:00:00 Ts debe ser mayor o igual a Td Ts=8.3 - Td=8.4 2023-11-20 23:40:00
1 2016-05-04 15:00:00 Ts debe ser mayor o igual a Td Ts=13.1 - Td=13.2 2023-11-20 23:41:00
1 2016-05-05 08:00:00 Ts debe ser mayor o igual a Td Ts=10.3 - Td=10.4 2023-11-20 23:41:00
1 2016-05-06 03:00:00 Ts debe ser mayor o igual a Td Ts=11.6 - Td=11.7 2023-11-20 23:41:00
1 2016-05-06 11:00:00 Ts debe ser mayor o igual a Td Ts=10.6 - Td=10.7 2023-11-20 23:41:00
1 2016-05-07 08:00:00 Ts debe ser mayor o igual a Td Ts=5.7 - Td=5.8 2023-11-20 23:41:00
1 2016-05-07 10:00:00 Ts debe ser mayor o igual a Td Ts=7.0 - Td=7.1 2023-11-20 23:41:00
1 2016-05-09 12:00:00 Ts debe ser mayor o igual a Td Ts=9.3 - Td=9.4 2023-11-20 23:41:00
1 2016-05-09 15:00:00 Ts debe ser mayor o igual a Td Ts=10.4 - Td=10.5 2023-11-20 23:41:00
1 2016-05-10 15:00:00 Ts debe ser mayor o igual a Td Ts=11.5 - Td=11.6 2023-11-20 23:41:00
1 2016-05-11 10:00:00 Ts debe ser mayor o igual a Td Ts=8.2 - Td=8.3 2023-11-20 23:41:00
1 2016-05-11 12:00:00 Ts debe ser mayor o igual a Td Ts=9.0 - Td=9.1 2023-11-20 23:41:00
1 2016-05-12 07:00:00 Ts debe ser mayor o igual a Td Ts=10.6 - Td=10.7 2023-11-20 23:41:00
1 2016-05-12 08:00:00 Ts debe ser mayor o igual a Td Ts=10.7 - Td=10.8 2023-11-20 23:41:00
1 2016-05-13 08:00:00 Ts debe ser mayor o igual a Td Ts=7.1 - Td=7.2 2023-11-20 23:41:00
1 2016-05-13 10:00:00 Ts debe ser mayor o igual a Td Ts=7.6 - Td=7.7 2023-11-20 23:41:00
1 2016-05-13 14:00:00 Ts debe ser mayor o igual a Td Ts=9.4 - Td=9.5 2023-11-20 23:41:00
1 2016-05-14 05:00:00 Ts debe ser mayor o igual a Td Ts=6.9 - Td=7.0 2023-11-20 23:41:00
1 2016-05-14 06:00:00 Ts debe ser mayor o igual a Td Ts=6.9 - Td=7.0 2023-11-20 23:41:00
1 2016-05-15 12:00:00 Ts debe ser mayor o igual a Td Ts=8.2 - Td=8.3 2023-11-20 23:41:00
1 2016-05-16 08:00:00 Ts debe ser mayor o igual a Td Ts=8.7 - Td=8.8 2023-11-20 23:41:00
1 2016-05-16 09:00:00 Ts debe ser mayor o igual a Td Ts=8.4 - Td=8.5 2023-11-20 23:41:00
1 2016-05-16 11:00:00 Ts debe ser mayor o igual a Td Ts=9.0 - Td=9.1 2023-11-20 23:41:00
1 2016-05-19 16:00:00 Ts debe ser mayor o igual a Td Ts=9.1 - Td=9.2 2023-11-20 23:41:00
1 2016-05-20 15:00:00 Ts debe ser mayor o igual a Td Ts=9.2 - Td=9.3 2023-11-20 23:41:00
1 2016-05-22 17:00:00 Ts debe ser mayor o igual a Td Ts=8.2 - Td=8.3 2023-11-20 23:41:00
1 2016-05-24 14:00:00 Ts debe ser mayor o igual a Td Ts=8.1 - Td=8.2 2023-11-20 23:41:00
1 2016-05-24 17:00:00 Ts debe ser mayor o igual a Td Ts=11.5 - Td=11.6 2023-11-20 23:41:00
1 2016-05-24 21:00:00 Ts debe ser mayor o igual a Td Ts=11.6 - Td=11.7 2023-11-20 23:41:00
1 2016-05-25 08:00:00 Ts debe ser mayor o igual a Td Ts=11.5 - Td=11.6 2023-11-20 23:41:00
1 2016-05-25 12:00:00 Ts debe ser mayor o igual a Td Ts=12.2 - Td=12.3 2023-11-20 23:41:00
1 2016-05-30 08:00:00 Ts debe ser mayor o igual a Td Ts=10.5 - Td=10.6 2023-11-20 23:41:00
1 2016-05-30 13:00:00 Ts debe ser mayor o igual a Td Ts=9.1 - Td=9.2 2023-11-20 23:41:00
1 2016-05-31 04:00:00 Ts debe ser mayor o igual a Td Ts=7.1 - Td=7.2 2023-11-20 23:41:00
1 2016-06-01 01:00:00 Ts debe ser mayor o igual a Td Ts=7.6 - Td=7.7 2023-11-20 23:41:00
1 2016-06-01 18:00:00 Ts debe ser mayor o igual a Td Ts=8.1 - Td=8.2 2023-11-20 23:41:00
1 2016-06-02 03:00:00 Ts debe ser mayor o igual a Td Ts=7.0 - Td=7.1 2023-11-20 23:41:00
1 2016-06-02 05:00:00 Ts debe ser mayor o igual a Td Ts=7.0 - Td=7.1 2023-11-20 23:41:00
1 2016-06-02 21:00:00 Ts debe ser mayor o igual a Td Ts=7.5 - Td=7.6 2023-11-20 23:41:00
1 2016-06-03 15:00:00 Ts debe ser mayor o igual a Td Ts=7.3 - Td=7.4 2023-11-20 23:41:00
1 2016-06-04 12:00:00 Ts debe ser mayor o igual a Td Ts=7.0 - Td=7.1 2023-11-20 23:41:00
1 2016-06-05 16:00:00 Ts debe ser mayor o igual a Td Ts=7.3 - Td=7.4 2023-11-20 23:41:00
1 2016-06-06 10:00:00 Ts debe ser mayor o igual a Td Ts=7.5 - Td=7.6 2023-11-20 23:41:00
1 2016-06-06 12:00:00 Ts debe ser mayor o igual a Td Ts=7.5 - Td=7.6 2023-11-20 23:41:00
1 2016-06-07 08:00:00 Ts debe ser mayor o igual a Td Ts=7.8 - Td=7.9 2023-11-20 23:41:00
1 2016-06-07 10:00:00 Ts debe ser mayor o igual a Td Ts=7.4 - Td=7.5 2023-11-20 23:41:00
1 2016-06-07 12:00:00 Ts debe ser mayor o igual a Td Ts=7.3 - Td=7.4 2023-11-20 23:41:00
1 2016-06-08 07:00:00 Ts debe ser mayor o igual a Td Ts=7.7 - Td=7.8 2023-11-20 23:41:00
1 2016-06-08 12:00:00 Ts debe ser mayor o igual a Td Ts=8.3 - Td=8.4 2023-11-20 23:41:00
1 2016-06-08 13:00:00 Ts debe ser mayor o igual a Td Ts=8.4 - Td=8.5 2023-11-20 23:41:00
1 2016-06-08 14:00:00 Ts debe ser mayor o igual a Td Ts=9.3 - Td=9.4 2023-11-20 23:41:00
1 2016-06-08 23:00:00 Ts debe ser mayor o igual a Td Ts=9.4 - Td=9.5 2023-11-20 23:41:00
1 2016-06-09 16:00:00 Ts debe ser mayor o igual a Td Ts=9.1 - Td=9.2 2023-11-20 23:41:00
1 2016-06-12 17:00:00 Ts debe ser mayor o igual a Td Ts=9.4 - Td=9.5 2023-11-20 23:41:00
1 2016-06-13 13:00:00 Ts debe ser mayor o igual a Td Ts=8.9 - Td=9.0 2023-11-20 23:41:00
1 2016-06-16 15:00:00 Ts debe ser mayor o igual a Td Ts=7.0 - Td=7.1 2023-11-20 23:41:00
1 2016-06-17 02:00:00 Ts debe ser mayor o igual a Td Ts=7.6 - Td=7.7 2023-11-20 23:41:00
1 2016-06-21 13:00:00 Ts debe ser mayor o igual a Td Ts=6.9 - Td=7.0 2023-11-20 23:41:00
1 2016-06-23 04:00:00 Ts debe ser mayor o igual a Td Ts=7.0 - Td=7.1 2023-11-20 23:41:00
1 2016-06-23 14:00:00 Ts debe ser mayor o igual a Td Ts=8.2 - Td=8.3 2023-11-20 23:41:00
1 2016-06-26 15:00:00 Ts debe ser mayor o igual a Td Ts=7.5 - Td=7.6 2023-11-20 23:41:00
1 2016-06-29 12:00:00 Ts debe ser mayor o igual a Td Ts=4.8 - Td=4.9 2023-11-20 23:41:00
1 2016-07-07 12:00:00 Ts debe ser mayor o igual a Td Ts=8.5 - Td=8.6 2023-11-20 23:41:00
1 2016-07-18 01:00:00 Ts debe ser mayor o igual a Td Ts=7.5 - Td=7.6 2023-11-20 23:42:00
1 2016-07-21 19:00:00 Ts debe ser mayor o igual a Td Ts=7.4 - Td=7.5 2023-11-20 23:42:00
1 2016-07-22 03:00:00 Ts debe ser mayor o igual a Td Ts=4.8 - Td=4.9 2023-11-20 23:42:00
1 2016-07-31 14:00:00 Ts debe ser mayor o igual a Td Ts=7.6 - Td=7.7 2023-11-20 23:42:00
1 2016-08-01 15:00:00 Ts debe ser mayor o igual a Td Ts=7.8 - Td=7.9 2023-11-20 23:42:00
1 2016-08-02 16:00:00 Ts debe ser mayor o igual a Td Ts=5.7 - Td=5.8 2023-11-20 23:42:00
1 2016-08-02 18:00:00 Ts debe ser mayor o igual a Td Ts=7.3 - Td=7.4 2023-11-20 23:42:00
1 2016-08-06 10:00:00 Ts debe ser mayor o igual a Td Ts=7.1 - Td=7.2 2023-11-20 23:42:00
1 2016-08-07 03:00:00 Ts debe ser mayor o igual a Td Ts=11.6 - Td=11.7 2023-11-20 23:42:00
1 2016-08-08 11:00:00 Ts debe ser mayor o igual a Td Ts=7.2 - Td=7.3 2023-11-20 23:42:00
1 2016-08-10 18:00:00 Ts debe ser mayor o igual a Td Ts=8.8 - Td=8.9 2023-11-20 23:42:00
1 2016-08-13 07:00:00 Ts debe ser mayor o igual a Td Ts=7.8 - Td=7.9 2023-11-20 23:42:00
1 2016-08-13 13:00:00 Ts debe ser mayor o igual a Td Ts=7.7 - Td=7.8 2023-11-20 23:42:00
1 2016-08-14 14:00:00 Ts debe ser mayor o igual a Td Ts=8.2 - Td=8.3 2023-11-20 23:42:00
1 2016-08-23 10:00:00 Ts debe ser mayor o igual a Td Ts=7.1 - Td=7.2 2023-11-20 23:42:00
1 2016-08-23 12:00:00 Ts debe ser mayor o igual a Td Ts=7.4 - Td=7.5 2023-11-20 23:42:00
1 2016-08-23 13:00:00 Ts debe ser mayor o igual a Td Ts=8.4 - Td=8.5 2023-11-20 23:42:00
1 2016-09-09 11:00:00 Ts debe ser mayor o igual a Td Ts=8.5 - Td=8.6 2023-11-20 23:42:00
1 2016-09-09 12:00:00 Ts debe ser mayor o igual a Td Ts=8.9 - Td=9.0 2023-11-20 23:42:00
1 2016-09-10 14:00:00 Ts debe ser mayor o igual a Td Ts=8.3 - Td=8.4 2023-11-20 23:42:00
1 2016-09-17 08:00:00 Ts debe ser mayor o igual a Td Ts=8.2 - Td=8.3 2023-11-20 23:42:00
1 2016-09-18 03:00:00 Ts debe ser mayor o igual a Td Ts=8.8 - Td=8.9 2023-11-20 23:42:00
1 2016-09-18 04:00:00 Ts debe ser mayor o igual a Td Ts=7.7 - Td=7.8 2023-11-20 23:42:00
1 2016-09-22 12:00:00 Ts debe ser mayor o igual a Td Ts=5.6 - Td=5.7 2023-11-20 23:42:00
1 2016-10-16 09:00:00 Ts debe ser mayor o igual a Td Ts=7.0 - Td=7.1 2023-11-20 23:43:00
1 2016-10-16 11:00:00 Ts debe ser mayor o igual a Td Ts=7.2 - Td=7.3 2023-11-20 23:43:00
1 2016-10-16 13:00:00 Ts debe ser mayor o igual a Td Ts=7.8 - Td=7.9 2023-11-20 23:43:00
1 2016-10-16 16:00:00 Ts debe ser mayor o igual a Td Ts=8.7 - Td=8.8 2023-11-20 23:43:00
1 2016-10-16 17:00:00 Ts debe ser mayor o igual a Td Ts=9.4 - Td=9.5 2023-11-20 23:43:00
1 2016-10-16 23:00:00 Ts debe ser mayor o igual a Td Ts=9.0 - Td=9.1 2023-11-20 23:43:00
1 2016-10-17 05:00:00 Ts debe ser mayor o igual a Td Ts=8.1 - Td=8.2 2023-11-20 23:43:00
1 2016-10-18 09:00:00 Ts debe ser mayor o igual a Td Ts=7.6 - Td=7.7 2023-11-20 23:43:00
1 2016-11-27 11:00:00 Ts debe ser mayor o igual a Td Ts=9.2 - Td=9.3 2023-11-20 23:43:00
1 2016-12-17 07:00:00 Ts debe ser mayor o igual a Td Ts=10.8 - Td=10.9 2023-11-20 23:44:00
1 2017-01-08 12:00:00 Ts debe ser mayor o igual a Td Ts=14.4 - Td=14.5 2023-11-20 23:44:00
1 2017-01-08 13:00:00 Ts debe ser mayor o igual a Td Ts=15.1 - Td=15.2 2023-11-20 23:44:00
1 2017-01-09 10:00:00 Ts debe ser mayor o igual a Td Ts=10.3 - Td=10.4 2023-11-20 23:44:00
1 2017-03-11 11:00:00 Ts debe ser mayor o igual a Td Ts=7.1 - Td=7.2 2023-11-20 23:45:00
1 2017-03-30 10:00:00 Ts debe ser mayor o igual a Td Ts=10.5 - Td=10.6 2023-11-20 23:45:00
1 2017-03-31 09:00:00 Ts debe ser mayor o igual a Td Ts=8.6 - Td=8.7 2023-11-20 23:45:00
1 2017-03-31 11:00:00 Ts debe ser mayor o igual a Td Ts=6.9 - Td=7.0 2023-11-20 23:45:00
1 2017-04-05 08:00:00 Ts debe ser mayor o igual a Td Ts=7.1 - Td=7.2 2023-11-20 23:45:00
1 2017-04-05 12:00:00 Ts debe ser mayor o igual a Td Ts=8.2 - Td=8.3 2023-11-20 23:45:00
1 2017-04-06 15:00:00 Ts debe ser mayor o igual a Td Ts=11.4 - Td=11.5 2023-11-20 23:45:00
1 2017-04-07 02:00:00 Ts debe ser mayor o igual a Td Ts=6.9 - Td=7.0 2023-11-20 23:45:00
1 2017-04-10 09:00:00 Ts debe ser mayor o igual a Td Ts=11.4 - Td=11.5 2023-11-20 23:45:00
1 2017-04-10 10:00:00 Ts debe ser mayor o igual a Td Ts=10.3 - Td=10.4 2023-11-20 23:45:00
1 2017-04-10 11:00:00 Ts debe ser mayor o igual a Td Ts=10.3 - Td=10.4 2023-11-20 23:45:00
1 2017-04-20 12:00:00 Ts debe ser mayor o igual a Td Ts=10.7 - Td=10.8 2023-11-20 23:45:00
1 2017-04-20 13:00:00 Ts debe ser mayor o igual a Td Ts=10.4 - Td=10.5 2023-11-20 23:45:00
1 2017-04-21 07:00:00 Ts debe ser mayor o igual a Td Ts=10.4 - Td=10.5 2023-11-20 23:45:00
1 2017-04-28 09:00:00 Ts debe ser mayor o igual a Td Ts=13.2 - Td=13.3 2023-11-20 23:45:00
1 2017-04-29 10:00:00 Ts debe ser mayor o igual a Td Ts=7.4 - Td=7.5 2023-11-20 23:45:00
1 2017-04-29 12:00:00 Ts debe ser mayor o igual a Td Ts=7.1 - Td=7.2 2023-11-20 23:45:00
1 2017-05-04 11:00:00 Ts debe ser mayor o igual a Td Ts=14.2 - Td=14.3 2023-11-20 23:46:00
1 2017-05-04 13:00:00 Ts debe ser mayor o igual a Td Ts=14.8 - Td=14.9 2023-11-20 23:46:00
1 2017-05-08 05:00:00 Ts debe ser mayor o igual a Td Ts=7.5 - Td=7.6 2023-11-20 23:46:00
1 2017-05-08 06:00:00 Ts debe ser mayor o igual a Td Ts=8.2 - Td=8.3 2023-11-20 23:46:00
1 2017-05-09 05:00:00 Ts debe ser mayor o igual a Td Ts=7.4 - Td=7.5 2023-11-20 23:46:00
1 2017-05-11 06:00:00 Ts debe ser mayor o igual a Td Ts=8.3 - Td=8.4 2023-11-20 23:46:00
1 2017-05-11 13:00:00 Ts debe ser mayor o igual a Td Ts=8.7 - Td=8.8 2023-11-20 23:46:00
1 2017-05-11 23:00:00 Ts debe ser mayor o igual a Td Ts=10.7 - Td=10.8 2023-11-20 23:46:00
1 2017-05-14 13:00:00 Ts debe ser mayor o igual a Td Ts=8.7 - Td=8.8 2023-11-20 23:46:00
1 2017-05-21 06:00:00 Ts debe ser mayor o igual a Td Ts=10.3 - Td=10.4 2023-11-20 23:46:00
1 2017-05-21 13:00:00 Ts debe ser mayor o igual a Td Ts=8.4 - Td=8.5 2023-11-20 23:46:00
1 2017-05-26 17:00:00 Ts debe ser mayor o igual a Td Ts=6.9 - Td=7.0 2023-11-20 23:46:00
1 2017-06-01 01:00:00 Ts debe ser mayor o igual a Td Ts=8.7 - Td=8.8 2023-11-20 23:46:00
1 2017-06-01 06:00:00 Ts debe ser mayor o igual a Td Ts=8.2 - Td=8.3 2023-11-20 23:46:00
1 2017-06-01 07:00:00 Ts debe ser mayor o igual a Td Ts=7.2 - Td=7.3 2023-11-20 23:46:00
1 2017-06-01 08:00:00 Ts debe ser mayor o igual a Td Ts=7.4 - Td=7.5 2023-11-20 23:46:00
1 2017-06-03 00:00:00 Ts debe ser mayor o igual a Td Ts=7.2 - Td=7.3 2023-11-20 23:46:00
1 2017-06-07 04:00:00 Ts debe ser mayor o igual a Td Ts=10.4 - Td=10.5 2023-11-20 23:46:00
1 2017-06-07 08:00:00 Ts debe ser mayor o igual a Td Ts=9.4 - Td=9.5 2023-11-20 23:46:00
1 2017-06-09 00:00:00 Ts debe ser mayor o igual a Td Ts=7.8 - Td=7.9 2023-11-20 23:46:00
1 2017-06-09 06:00:00 Ts debe ser mayor o igual a Td Ts=8.9 - Td=9.0 2023-11-20 23:46:00
1 2017-06-09 10:00:00 Ts debe ser mayor o igual a Td Ts=8.4 - Td=8.5 2023-11-20 23:46:00
1 2017-06-13 03:00:00 Ts debe ser mayor o igual a Td Ts=7.1 - Td=7.2 2023-11-20 23:46:00
1 2017-06-13 19:00:00 Ts debe ser mayor o igual a Td Ts=9.0 - Td=9.1 2023-11-20 23:46:00
1 2017-06-22 02:00:00 Ts debe ser mayor o igual a Td Ts=8.3 - Td=8.4 2023-11-20 23:46:00
1 2017-06-25 03:00:00 Ts debe ser mayor o igual a Td Ts=7.5 - Td=7.6 2023-11-20 23:46:00
1 2017-06-26 03:00:00 Ts debe ser mayor o igual a Td Ts=7.3 - Td=7.4 2023-11-20 23:46:00
1 2017-06-26 15:00:00 Ts debe ser mayor o igual a Td Ts=7.7 - Td=7.8 2023-11-20 23:46:00
1 2017-06-26 17:00:00 Ts debe ser mayor o igual a Td Ts=8.2 - Td=8.3 2023-11-20 23:46:00
1 2017-06-26 19:00:00 Ts debe ser mayor o igual a Td Ts=8.7 - Td=8.8 2023-11-20 23:46:00
1 2017-06-26 21:00:00 Ts debe ser mayor o igual a Td Ts=8.8 - Td=8.9 2023-11-20 23:46:00
1 2017-06-27 03:00:00 Ts debe ser mayor o igual a Td Ts=7.4 - Td=7.5 2023-11-20 23:46:00
1 2017-06-27 08:00:00 Ts debe ser mayor o igual a Td Ts=7.1 - Td=7.2 2023-11-20 23:46:00
1 2017-06-27 12:00:00 Ts debe ser mayor o igual a Td Ts=7.2 - Td=7.3 2023-11-20 23:46:00
1 2017-06-27 13:00:00 Ts debe ser mayor o igual a Td Ts=7.3 - Td=7.4 2023-11-20 23:46:00
1 2017-06-27 21:00:00 Ts debe ser mayor o igual a Td Ts=9.4 - Td=9.5 2023-11-20 23:46:00
1 2017-06-28 05:00:00 Ts debe ser mayor o igual a Td Ts=8.1 - Td=8.2 2023-11-20 23:46:00
1 2017-06-28 06:00:00 Ts debe ser mayor o igual a Td Ts=7.5 - Td=7.6 2023-11-20 23:46:00
1 2017-06-29 13:00:00 Ts debe ser mayor o igual a Td Ts=8.6 - Td=8.7 2023-11-20 23:46:00
1 2017-07-01 02:00:00 Ts debe ser mayor o igual a Td Ts=11.6 - Td=11.7 2023-11-20 23:46:00
1 2017-07-02 00:00:00 Ts debe ser mayor o igual a Td Ts=9.3 - Td=9.4 2023-11-20 23:46:00
1 2017-07-02 01:00:00 Ts debe ser mayor o igual a Td Ts=8.9 - Td=9.0 2023-11-20 23:46:00
1 2017-07-02 06:00:00 Ts debe ser mayor o igual a Td Ts=8.2 - Td=8.3 2023-11-20 23:46:00
1 2017-07-02 12:00:00 Ts debe ser mayor o igual a Td Ts=7.5 - Td=7.6 2023-11-20 23:46:00
1 2017-07-04 13:00:00 Ts debe ser mayor o igual a Td Ts=4.8 - Td=4.9 2023-11-20 23:46:00
1 2017-07-08 03:00:00 Ts debe ser mayor o igual a Td Ts=4.8 - Td=4.9 2023-11-20 23:46:00
1 2017-07-08 21:00:00 Ts debe ser mayor o igual a Td Ts=8.1 - Td=8.2 2023-11-20 23:46:00
1 2017-07-20 12:00:00 Ts debe ser mayor o igual a Td Ts=9.3 - Td=9.4 2023-11-20 23:47:00
1 2017-08-07 09:00:00 Ts debe ser mayor o igual a Td Ts=5.6 - Td=5.7 2023-11-20 23:47:00
1 2017-08-09 03:00:00 Ts debe ser mayor o igual a Td Ts=8.8 - Td=8.9 2023-11-20 23:47:00
1 2017-08-29 01:00:00 Ts debe ser mayor o igual a Td Ts=5.6 - Td=5.7 2023-11-20 23:47:00
1 2017-08-31 22:00:00 Ts debe ser mayor o igual a Td Ts=8.8 - Td=8.9 2023-11-20 23:47:00
1 2017-09-01 00:00:00 Ts debe ser mayor o igual a Td Ts=8.5 - Td=8.6 2023-11-20 23:47:00
1 2017-09-01 02:00:00 Ts debe ser mayor o igual a Td Ts=8.6 - Td=8.7 2023-11-20 23:47:00
1 2017-09-01 04:00:00 Ts debe ser mayor o igual a Td Ts=8.8 - Td=8.9 2023-11-20 23:47:00
1 2017-09-01 07:00:00 Ts debe ser mayor o igual a Td Ts=8.8 - Td=8.9 2023-11-20 23:47:00
1 2017-09-01 09:00:00 Ts debe ser mayor o igual a Td Ts=8.5 - Td=8.6 2023-11-20 23:47:00
1 2017-09-01 10:00:00 Ts debe ser mayor o igual a Td Ts=8.3 - Td=8.4 2023-11-20 23:47:00
1 2017-09-03 12:00:00 Ts debe ser mayor o igual a Td Ts=5.7 - Td=5.8 2023-11-20 23:47:00
1 2017-09-06 03:00:00 Ts debe ser mayor o igual a Td Ts=5.6 - Td=5.7 2023-11-20 23:47:00
1 2017-09-06 10:00:00 Ts debe ser mayor o igual a Td Ts=4.8 - Td=4.9 2023-11-20 23:47:00
1 2017-09-18 04:00:00 Ts debe ser mayor o igual a Td Ts=4.8 - Td=4.9 2023-11-20 23:47:00
1 2017-10-03 11:00:00 Ts debe ser mayor o igual a Td Ts=7.2 - Td=7.3 2023-11-20 23:48:00
1 2017-10-11 09:00:00 Ts debe ser mayor o igual a Td Ts=5.6 - Td=5.7 2023-11-20 23:48:00
1 2017-10-16 11:00:00 Ts debe ser mayor o igual a Td Ts=8.8 - Td=8.9 2023-11-20 23:48:00
1 2017-12-26 06:00:00 Ts debe ser mayor o igual a Td Ts=10.8 - Td=10.9 2023-11-20 23:49:00
1 2017-12-26 08:00:00 Ts debe ser mayor o igual a Td Ts=11.4 - Td=11.5 2023-11-20 23:49:00
1 2017-12-30 03:00:00 Ts debe ser mayor o igual a Td Ts=12.6 - Td=12.7 2023-11-20 23:49:00
1 2017-12-30 04:00:00 Ts debe ser mayor o igual a Td Ts=12.3 - Td=12.4 2023-11-20 23:49:00
1 2017-12-30 08:00:00 Ts debe ser mayor o igual a Td Ts=10.3 - Td=10.4 2023-11-20 23:49:00
1 2018-03-17 00:00:00 Ts debe ser mayor o igual a Td Ts=10.7 - Td=10.8 2023-11-20 23:50:00
1 2018-03-21 13:00:00 Ts debe ser mayor o igual a Td Ts=8.9 - Td=9.0 2023-11-20 23:50:00
1 2018-04-09 12:00:00 Ts debe ser mayor o igual a Td Ts=13.2 - Td=13.3 2023-11-20 23:50:00
1 2018-04-21 05:00:00 Ts debe ser mayor o igual a Td Ts=7.0 - Td=7.1 2023-11-20 23:50:00
1 2018-04-21 10:00:00 Ts debe ser mayor o igual a Td Ts=8.2 - Td=8.3 2023-11-20 23:51:00
1 2018-04-22 12:00:00 Ts debe ser mayor o igual a Td Ts=8.5 - Td=8.6 2023-11-20 23:51:00
1 2018-04-25 12:00:00 Ts debe ser mayor o igual a Td Ts=7.1 - Td=7.2 2023-11-20 23:51:00
1 2018-04-27 10:00:00 Ts debe ser mayor o igual a Td Ts=4.8 - Td=4.9 2023-11-20 23:51:00
1 2018-05-07 07:00:00 Ts debe ser mayor o igual a Td Ts=7.6 - Td=7.7 2023-11-20 23:51:00
1 2018-05-08 06:00:00 Ts debe ser mayor o igual a Td Ts=10.6 - Td=10.7 2023-11-20 23:51:00
1 2018-05-08 07:00:00 Ts debe ser mayor o igual a Td Ts=10.8 - Td=10.9 2023-11-20 23:51:00
1 2018-05-08 09:00:00 Ts debe ser mayor o igual a Td Ts=10.3 - Td=10.4 2023-11-20 23:51:00
1 2018-05-09 07:00:00 Ts debe ser mayor o igual a Td Ts=8.9 - Td=9.0 2023-11-20 23:51:00
1 2018-05-09 12:00:00 Ts debe ser mayor o igual a Td Ts=8.4 - Td=8.5 2023-11-20 23:51:00
1 2018-05-10 04:00:00 Ts debe ser mayor o igual a Td Ts=8.4 - Td=8.5 2023-11-20 23:51:00
1 2018-05-11 09:00:00 Ts debe ser mayor o igual a Td Ts=10.8 - Td=10.9 2023-11-20 23:51:00
1 2018-05-12 02:00:00 Ts debe ser mayor o igual a Td Ts=12.2 - Td=12.3 2023-11-20 23:51:00
1 2018-05-12 06:00:00 Ts debe ser mayor o igual a Td Ts=10.5 - Td=10.6 2023-11-20 23:51:00
1 2018-05-12 08:00:00 Ts debe ser mayor o igual a Td Ts=10.3 - Td=10.4 2023-11-20 23:51:00
1 2018-05-12 16:00:00 Ts debe ser mayor o igual a Td Ts=13.7 - Td=13.8 2023-11-20 23:51:00
1 2018-05-15 15:00:00 Ts debe ser mayor o igual a Td Ts=7.1 - Td=7.2 2023-11-20 23:51:00
1 2018-05-17 07:00:00 Ts debe ser mayor o igual a Td Ts=8.7 - Td=8.8 2023-11-20 23:51:00
1 2018-05-17 08:00:00 Ts debe ser mayor o igual a Td Ts=8.8 - Td=8.9 2023-11-20 23:51:00
1 2018-05-18 01:00:00 Ts debe ser mayor o igual a Td Ts=8.5 - Td=8.6 2023-11-20 23:51:00
1 2018-05-18 02:00:00 Ts debe ser mayor o igual a Td Ts=8.9 - Td=9.0 2023-11-20 23:51:00
1 2018-05-18 04:00:00 Ts debe ser mayor o igual a Td Ts=8.3 - Td=8.4 2023-11-20 23:51:00
1 2018-05-18 07:00:00 Ts debe ser mayor o igual a Td Ts=7.4 - Td=7.5 2023-11-20 23:51:00
1 2018-05-19 07:00:00 Ts debe ser mayor o igual a Td Ts=7.0 - Td=7.1 2023-11-20 23:51:00
1 2018-05-19 16:00:00 Ts debe ser mayor o igual a Td Ts=8.7 - Td=8.8 2023-11-20 23:51:00
1 2018-05-21 14:00:00 Ts debe ser mayor o igual a Td Ts=4.8 - Td=4.9 2023-11-20 23:51:00
1 2018-05-22 07:00:00 Ts debe ser mayor o igual a Td Ts=4.8 - Td=4.9 2023-11-20 23:51:00
1 2018-05-29 01:00:00 Ts debe ser mayor o igual a Td Ts=8.1 - Td=8.2 2023-11-20 23:51:00
1 2018-05-29 02:00:00 Ts debe ser mayor o igual a Td Ts=7.5 - Td=7.6 2023-11-20 23:51:00
1 2018-05-29 09:00:00 Ts debe ser mayor o igual a Td Ts=7.3 - Td=7.4 2023-11-20 23:51:00
1 2018-05-30 13:00:00 Ts debe ser mayor o igual a Td Ts=5.7 - Td=5.8 2023-11-20 23:51:00
1 2018-05-30 15:00:00 Ts debe ser mayor o igual a Td Ts=7.0 - Td=7.1 2023-11-20 23:51:00
1 2018-06-08 01:00:00 Ts debe ser mayor o igual a Td Ts=7.3 - Td=7.4 2023-11-20 23:51:00
1 2018-06-19 10:00:00 Ts debe ser mayor o igual a Td Ts=8.9 - Td=9.0 2023-11-20 23:51:00
1 2018-06-19 11:00:00 Ts debe ser mayor o igual a Td Ts=8.4 - Td=8.5 2023-11-20 23:51:00
1 2018-06-21 14:00:00 Ts debe ser mayor o igual a Td Ts=7.5 - Td=7.6 2023-11-20 23:51:00
1 2018-06-26 04:00:00 Ts debe ser mayor o igual a Td Ts=7.7 - Td=7.8 2023-11-20 23:51:00
1 2018-06-26 05:00:00 Ts debe ser mayor o igual a Td Ts=7.5 - Td=7.6 2023-11-20 23:51:00
1 2018-06-26 06:00:00 Ts debe ser mayor o igual a Td Ts=6.9 - Td=7.0 2023-11-20 23:51:00
1 2018-06-26 15:00:00 Ts debe ser mayor o igual a Td Ts=8.2 - Td=8.3 2023-11-20 23:51:00
1 2018-06-26 22:00:00 Ts debe ser mayor o igual a Td Ts=9.4 - Td=9.5 2023-11-20 23:51:00
1 2018-06-29 02:00:00 Ts debe ser mayor o igual a Td Ts=7.8 - Td=7.9 2023-11-20 23:51:00
1 2018-06-29 18:00:00 Ts debe ser mayor o igual a Td Ts=10.8 - Td=10.9 2023-11-20 23:51:00
1 2018-07-07 08:00:00 Ts debe ser mayor o igual a Td Ts=7.6 - Td=7.7 2023-11-20 23:52:00
1 2018-07-11 03:00:00 Ts debe ser mayor o igual a Td Ts=4.8 - Td=4.9 2023-11-20 23:52:00
1 2018-07-11 14:00:00 Ts debe ser mayor o igual a Td Ts=7.5 - Td=7.6 2023-11-20 23:52:00
1 2018-07-13 02:00:00 Ts debe ser mayor o igual a Td Ts=11.4 - Td=11.5 2023-11-20 23:52:00
1 2018-07-13 13:00:00 Ts debe ser mayor o igual a Td Ts=10.4 - Td=10.5 2023-11-20 23:52:00
1 2018-07-13 15:00:00 Ts debe ser mayor o igual a Td Ts=11.4 - Td=11.5 2023-11-20 23:52:00
1 2018-07-16 14:00:00 Ts debe ser mayor o igual a Td Ts=5.7 - Td=5.8 2023-11-20 23:52:00
1 2018-08-04 23:00:00 Ts debe ser mayor o igual a Td Ts=9.1 - Td=9.2 2023-11-20 23:52:00
1 2018-08-05 00:00:00 Ts debe ser mayor o igual a Td Ts=8.8 - Td=8.9 2023-11-20 23:52:00
1 2018-08-05 03:00:00 Ts debe ser mayor o igual a Td Ts=9.0 - Td=9.1 2023-11-20 23:52:00
1 2018-08-06 00:00:00 Ts debe ser mayor o igual a Td Ts=10.3 - Td=10.4 2023-11-20 23:52:00
1 2018-08-06 05:00:00 Ts debe ser mayor o igual a Td Ts=10.8 - Td=10.9 2023-11-20 23:52:00
1 2018-08-06 19:00:00 Ts debe ser mayor o igual a Td Ts=9.3 - Td=9.4 2023-11-20 23:52:00
1 2018-08-10 06:00:00 Ts debe ser mayor o igual a Td Ts=7.1 - Td=7.2 2023-11-20 23:52:00
1 2018-08-10 15:00:00 Ts debe ser mayor o igual a Td Ts=9.3 - Td=9.4 2023-11-20 23:52:00
1 2018-08-11 14:00:00 Ts debe ser mayor o igual a Td Ts=7.6 - Td=7.7 2023-11-20 23:52:00
1 2018-08-17 08:00:00 Ts debe ser mayor o igual a Td Ts=9.1 - Td=9.2 2023-11-20 23:52:00
1 2018-08-17 09:00:00 Ts debe ser mayor o igual a Td Ts=9.3 - Td=9.4 2023-11-20 23:52:00
1 2018-08-17 10:00:00 Ts debe ser mayor o igual a Td Ts=8.8 - Td=8.9 2023-11-20 23:52:00
1 2018-08-17 12:00:00 Ts debe ser mayor o igual a Td Ts=8.7 - Td=8.8 2023-11-20 23:52:00
1 2018-08-26 07:00:00 Ts debe ser mayor o igual a Td Ts=8.5 - Td=8.6 2023-11-20 23:52:00
1 2018-08-26 08:00:00 Ts debe ser mayor o igual a Td Ts=8.4 - Td=8.5 2023-11-20 23:52:00
1 2018-08-26 10:00:00 Ts debe ser mayor o igual a Td Ts=7.6 - Td=7.7 2023-11-20 23:52:00
1 2018-09-03 14:00:00 Ts debe ser mayor o igual a Td Ts=6.9 - Td=7.0 2023-11-20 23:52:00
1 2019-05-04 04:00:00 Ts debe ser mayor o igual a Td Ts=12.6 - Td=12.7 2023-11-20 23:56:00
1 2019-05-05 04:00:00 Ts debe ser mayor o igual a Td Ts=10.3 - Td=10.4 2023-11-20 23:56:00
1 2019-05-06 09:00:00 Ts debe ser mayor o igual a Td Ts=8.4 - Td=8.5 2023-11-20 23:56:00
1 2019-05-07 06:00:00 Ts debe ser mayor o igual a Td Ts=7.6 - Td=7.7 2023-11-20 23:56:00
1 2019-05-07 07:00:00 Ts debe ser mayor o igual a Td Ts=7.7 - Td=7.8 2023-11-20 23:56:00
1 2019-05-07 08:00:00 Ts debe ser mayor o igual a Td Ts=7.7 - Td=7.8 2023-11-20 23:56:00
1 2019-05-08 08:00:00 Ts debe ser mayor o igual a Td Ts=7.8 - Td=7.9 2023-11-20 23:56:00
1 2019-05-08 12:00:00 Ts debe ser mayor o igual a Td Ts=7.8 - Td=7.9 2023-11-20 23:56:00
1 2019-05-08 13:00:00 Ts debe ser mayor o igual a Td Ts=8.3 - Td=8.4 2023-11-20 23:56:00
1 2019-05-09 08:00:00 Ts debe ser mayor o igual a Td Ts=8.4 - Td=8.5 2023-11-20 23:56:00
1 2019-05-12 11:00:00 Ts debe ser mayor o igual a Td Ts=13.0 - Td=13.1 2023-11-20 23:56:00
1 2019-05-15 15:00:00 Ts debe ser mayor o igual a Td Ts=5.6 - Td=5.7 2023-11-20 23:56:00
1 2019-05-18 06:00:00 Ts debe ser mayor o igual a Td Ts=7.2 - Td=7.3 2023-11-20 23:56:00
1 2019-05-19 05:00:00 Ts debe ser mayor o igual a Td Ts=7.5 - Td=7.6 2023-11-20 23:56:00
1 2019-10-31 11:00:00 Ts debe ser mayor o igual a Td Ts=5.2 - Td=6.2 2023-11-08 10:41:00
1 2020-01-01 03:00:00 Ts debe ser mayor o igual a Td Ts=0.0 - Td=10.8 2023-11-13 17:46:00
1 2020-01-01 03:00:00 Ts debe ser mayor o igual a Td Ts=0.0 - Td=10.8 2023-11-13 17:46:00
1 2020-01-15 01:00:00 Ts debe ser mayor o igual a Td Ts=0.0 - Td=8.7 2023-11-13 17:46:00
1 2020-01-16 03:00:00 Ts debe ser mayor o igual a Td Ts=0.0 - Td=5.5 2023-11-13 17:46:00
Errores del Nivel 445
Nivel Fecha del Dato Descripción Información Error Fecha Ingreso
2 2020-01-23 12:00:00 Temperatura 9.8 del 23-01-2020 09:00, Menor que la Mínima 10.6 23-01-2020 12:00 9.8 -- 10.6 2020-02-10 20:57:00
2 2024-05-23 00:00:00 Temperatura 12.3 del 22-05-2024 18:00, Mayor que la Máxima 11.7 23-05-2024 00:00 12.3 -- 11.7 2024-05-23 01:01:00
Errores del Nivel 2
Informe generado el 13-07-2024 04:42
Requerimiento: RE6001